Time;durP1;ratioP1;P1;durP2;ratioP2;P2;SDS_P1;SDS_P2;PMS_P1;PMS_P2;Temp;Humidity;BMP_temperature;BMP_pressure;BME280_temperature;BME280_humidity;BME280_pressure;Samples;Min_cycle;Max_cycle;Signal;HPM_P1;HPM_P2
2022/12/03 00:02:19;;;;;;;0.00;0.00;;;;;;;;;;5066342;28;20020;-81
2022/12/03 00:04:45;;;;;;;0.00;0.00;;;;;;;;;;5061419;28;20044;-81
2022/12/03 00:07:12;;;;;;;0.00;0.00;;;;;;;;;;5068063;28;20043;-80
2022/12/03 00:09:38;;;;;;;0.00;0.00;;;;;;;;;;5062423;28;20387;-81
2022/12/03 00:12:04;;;;;;;0.07;0.07;;;;;;;;;;5055711;28;20059;-80
2022/12/03 00:14:31;;;;;;;0.00;0.00;;;;;;;;;;5027789;28;20128;-80
2022/12/03 00:16:57;;;;;;;0.07;0.07;;;;;;;;;;5042673;28;20374;-80
2022/12/03 00:19:23;;;;;;;0.00;0.00;;;;;;;;;;5017319;28;20446;-79
2022/12/03 00:21:50;;;;;;;0.00;0.00;;;;;;;;;;5032728;28;20063;-82
2022/12/03 00:24:16;;;;;;;0.00;0.00;;;;;;;;;;5046403;28;20029;-82
2022/12/03 00:26:42;;;;;;;0.10;0.10;;;;;;;;;;5047910;28;20033;-81
2022/12/03 00:29:10;;;;;;;0.00;0.00;;;;;;;;;;5047715;28;20036;-80
2022/12/03 00:31:36;;;;;;;0.00;0.00;;;;;;;;;;5045872;28;20094;-82
2022/12/03 00:34:02;;;;;;;0.00;0.00;;;;;;;;;;5046201;28;20067;-83
2022/12/03 00:36:29;;;;;;;0.00;0.00;;;;;;;;;;5049251;28;20033;-82
2022/12/03 00:38:55;;;;;;;0.00;0.00;;;;;;;;;;5049736;28;20029;-82
2022/12/03 00:41:21;;;;;;;0.00;0.00;;;;;;;;;;5048589;28;20040;-80
2022/12/03 00:43:48;;;;;;;0.00;0.00;;;;;;;;;;5023305;28;20399;-81
2022/12/03 00:46:14;;;;;;;0.00;0.00;;;;;;;;;;5044602;28;20056;-80
2022/12/03 00:48:40;;;;;;;0.00;0.00;;;;;;;;;;5039442;28;20067;-81
2022/12/03 00:51:06;;;;;;;0.00;0.00;;;;;;;;;;5052640;28;20594;-80
2022/12/03 00:53:34;;;;;;;0.00;0.00;;;;;;;;;;5044637;28;20025;-81
2022/12/03 00:56:00;;;;;;;0.00;0.00;;;;;;;;;;5044941;28;20111;-81
2022/12/03 00:58:27;;;;;;;0.00;0.00;;;;;;;;;;5029018;28;20463;-81
2022/12/03 01:00:53;;;;;;;0.00;0.00;;;;;;;;;;5044909;28;20025;-81
2022/12/03 01:03:19;;;;;;;0.10;0.10;;;;;;;;;;5046133;28;20385;-83
2022/12/03 01:05:45;;;;;;;0.00;0.00;;;;;;;;;;5042230;28;20036;-82
2022/12/03 01:08:12;;;;;;;0.00;0.00;;;;;;;;;;5039735;28;20028;-81
2022/12/03 01:10:38;;;;;;;0.00;0.00;;;;;;;;;;5027513;28;20124;-81
2022/12/03 01:13:05;;;;;;;0.00;0.00;;;;;;;;;;5035113;28;20048;-81
2022/12/03 01:15:31;;;;;;;0.10;0.10;;;;;;;;;;5041462;28;20028;-81
2022/12/03 01:17:57;;;;;;;0.00;0.00;;;;;;;;;;5057813;28;20369;-81
2022/12/03 01:20:23;;;;;;;0.00;0.00;;;;;;;;;;5060005;28;20043;-81
2022/12/03 01:22:50;;;;;;;0.00;0.00;;;;;;;;;;5061823;28;20021;-81
2022/12/03 01:25:16;;;;;;;0.00;0.00;;;;;;;;;;5040228;28;20033;-81
2022/12/03 01:27:43;;;;;;;0.00;0.00;;;;;;;;;;5060735;28;20040;-82
2022/12/03 01:30:11;;;;;;;0.00;0.00;;;;;;;;;;5041553;28;20078;-82
2022/12/03 01:32:37;;;;;;;0.00;0.00;;;;;;;;;;5061695;28;20033;-82
2022/12/03 01:35:04;;;;;;;0.00;0.00;;;;;;;;;;5059501;28;20377;-82
2022/12/03 01:37:30;;;;;;;0.00;0.00;;;;;;;;;;5059245;28;20025;-82
2022/12/03 01:39:57;;;;;;;0.00;0.00;;;;;;;;;;5060454;28;20072;-81
2022/12/03 01:42:28;;;;;;;0.00;0.00;;;;;;;;;;5042622;28;20108;-83
2022/12/03 01:44:57;;;;;;;0.00;0.00;;;;;;;;;;5065781;28;20029;-82
2022/12/03 01:47:27;;;;;;;0.00;0.00;;;;;;;;;;5064955;28;20152;-81
2022/12/03 01:50:05;;;;;;;0.00;0.00;;;;;;;;;;5061290;28;20025;-80
2022/12/03 01:52:32;;;;;;;0.03;0.03;;;;;;;;;;5063209;28;20023;-81
2022/12/03 01:55:00;;;;;;;0.00;0.00;;;;;;;;;;5064290;28;20033;-82
2022/12/03 01:57:37;;;;;;;0.00;0.00;;;;;;;;;;5046260;28;20024;-81
2022/12/03 02:00:04;;;;;;;0.00;0.00;;;;;;;;;;5073769;28;20074;-81
2022/12/03 02:02:31;;;;;;;0.00;0.00;;;;;;;;;;5070011;28;20412;-80
2022/12/03 02:04:57;;;;;;;0.00;0.00;;;;;;;;;;5074402;28;20378;-81
2022/12/03 02:07:25;;;;;;;0.00;0.00;;;;;;;;;;5066535;28;20032;-81
2022/12/03 02:09:52;;;;;;;0.10;0.10;;;;;;;;;;5073554;28;20039;-81
2022/12/03 02:12:22;;;;;;;0.00;0.00;;;;;;;;;;5055575;28;20052;-81
2022/12/03 02:14:49;;;;;;;0.00;0.00;;;;;;;;;;5021482;28;20424;-81
2022/12/03 02:17:15;;;;;;;0.00;0.00;;;;;;;;;;5030794;28;20047;-81
2022/12/03 02:19:42;;;;;;;0.00;0.00;;;;;;;;;;5049772;28;20029;-81
2022/12/03 02:22:26;;;;;;;0.00;0.00;;;;;;;;;;5041629;28;20037;-81
2022/12/03 02:24:59;;;;;;;0.00;0.00;;;;;;;;;;5049526;28;20037;-82
2022/12/03 02:27:28;;;;;;;0.00;0.00;;;;;;;;;;5044437;28;20018;-81
2022/12/03 02:29:54;;;;;;;0.00;0.00;;;;;;;;;;5045751;28;20454;-81
2022/12/03 02:32:22;;;;;;;0.00;0.00;;;;;;;;;;5048859;28;20052;-82
2022/12/03 02:34:49;;;;;;;0.00;0.00;;;;;;;;;;5053183;28;20021;-81
2022/12/03 02:37:17;;;;;;;0.00;0.00;;;;;;;;;;5048418;28;20020;-83
2022/12/03 02:39:47;;;;;;;0.00;0.00;;;;;;;;;;5024793;28;20025;-83
2022/12/03 02:45:01;;;;;;;0.00;0.00;;;;;;;;;;5040453;28;20048;-82
2022/12/03 02:47:28;;;;;;;0.00;0.00;;;;;;;;;;5046901;28;20021;-83
2022/12/03 02:49:54;;;;;;;0.00;0.00;;;;;;;;;;5038242;28;20064;-80
2022/12/03 02:52:21;;;;;;;0.00;0.00;;;;;;;;;;5041974;28;20032;-81
2022/12/03 02:54:48;;;;;;;0.00;0.00;;;;;;;;;;5050804;28;20151;-81
2022/12/03 02:57:15;;;;;;;0.00;0.00;;;;;;;;;;5052017;28;20065;-81
2022/12/03 02:59:41;;;;;;;0.00;0.00;;;;;;;;;;5033021;28;20029;-82
2022/12/03 03:02:10;;;;;;;0.00;0.00;;;;;;;;;;5044426;28;20044;-82
2022/12/03 03:04:36;;;;;;;0.00;0.00;;;;;;;;;;5046867;28;20045;-80
2022/12/03 03:07:03;;;;;;;0.00;0.00;;;;;;;;;;5027081;28;20036;-80
2022/12/03 03:09:29;;;;;;;0.00;0.00;;;;;;;;;;5040286;28;20035;-82
2022/12/03 03:11:55;;;;;;;0.10;0.10;;;;;;;;;;5053376;28;20039;-82
2022/12/03 03:14:22;;;;;;;0.00;0.00;;;;;;;;;;5061752;28;20024;-81
2022/12/03 03:16:54;;;;;;;0.00;0.00;;;;;;;;;;5059296;28;20477;-80
2022/12/03 03:19:23;;;;;;;0.00;0.00;;;;;;;;;;5059184;28;20033;-82
2022/12/03 03:21:49;;;;;;;0.00;0.00;;;;;;;;;;5064167;28;20038;-80
2022/12/03 03:24:16;;;;;;;0.00;0.00;;;;;;;;;;5058190;28;20025;-81
2022/12/03 03:26:42;;;;;;;0.03;0.03;;;;;;;;;;5059819;28;20040;-81
2022/12/03 03:29:08;;;;;;;0.00;0.00;;;;;;;;;;5066633;28;20025;-79
2022/12/03 03:31:35;;;;;;;0.00;0.00;;;;;;;;;;5062327;28;20025;-84
2022/12/03 03:34:01;;;;;;;0.00;0.00;;;;;;;;;;5049160;28;20028;-80
2022/12/03 03:36:27;;;;;;;0.00;0.00;;;;;;;;;;5066223;28;20361;-81
2022/12/03 03:38:54;;;;;;;0.00;0.00;;;;;;;;;;5058156;28;20482;-81
2022/12/03 03:41:20;;;;;;;0.00;0.00;;;;;;;;;;5071317;28;20034;-81
2022/12/03 03:43:48;;;;;;;0.00;0.00;;;;;;;;;;5056273;28;20029;-81
2022/12/03 03:46:14;;;;;;;0.00;0.00;;;;;;;;;;5067722;28;20082;-81
2022/12/03 03:48:41;;;;;;;0.00;0.00;;;;;;;;;;5050349;28;20020;-82
2022/12/03 03:51:08;;;;;;;0.07;0.07;;;;;;;;;;5062100;28;20021;-82
2022/12/03 03:53:39;;;;;;;0.10;0.10;;;;;;;;;;5044994;28;20538;-81
2022/12/03 03:56:06;;;;;;;0.00;0.00;;;;;;;;;;5067787;28;20043;-82
2022/12/03 03:58:32;;;;;;;0.00;0.00;;;;;;;;;;5046403;28;20486;-81
2022/12/03 04:01:00;;;;;;;0.00;0.00;;;;;;;;;;5064844;28;20033;-80
2022/12/03 04:03:26;;;;;;;0.07;0.07;;;;;;;;;;5047392;28;20039;-81
2022/12/03 04:05:53;;;;;;;0.00;0.00;;;;;;;;;;5062104;28;20122;-81
2022/12/03 04:08:19;;;;;;;0.53;0.07;;;;;;;;;;5060540;28;20022;-81
2022/12/03 04:13:30;;;;;;;0.00;0.00;;;;;;;;;;5068381;28;20059;-81
2022/12/03 04:15:56;;;;;;;0.00;0.00;;;;;;;;;;5066626;28;20062;-81
2022/12/03 04:18:41;;;;;;;0.00;0.00;;;;;;;;;;5068105;28;20028;-81
2022/12/03 04:23:53;;;;;;;0.00;0.00;;;;;;;;;;5067064;28;20040;-80
2022/12/03 04:29:04;;;;;;;0.00;0.00;;;;;;;;;;5056561;28;20068;-80
2022/12/03 04:37:01;;;;;;;0.00;0.00;;;;;;;;;;5061860;28;20044;-83
2022/12/03 04:39:27;;;;;;;0.00;0.00;;;;;;;;;;5040460;28;20476;-82
2022/12/03 04:41:53;;;;;;;0.10;0.10;;;;;;;;;;5044090;28;20060;-81
2022/12/03 04:44:32;;;;;;;0.00;0.00;;;;;;;;;;5062301;28;20037;-80
2022/12/03 04:46:59;;;;;;;0.03;0.03;;;;;;;;;;5039619;28;20112;-81
2022/12/03 04:49:25;;;;;;;0.00;0.00;;;;;;;;;;5058321;28;20203;-82
2022/12/03 04:51:52;;;;;;;0.00;0.00;;;;;;;;;;5057428;28;20025;-81
2022/12/03 04:54:18;;;;;;;0.00;0.00;;;;;;;;;;5058462;28;20104;-81
2022/12/03 04:56:44;;;;;;;0.00;0.00;;;;;;;;;;5056980;28;20024;-81
2022/12/03 04:59:11;;;;;;;0.00;0.00;;;;;;;;;;5063320;28;20104;-82
2022/12/03 05:01:37;;;;;;;0.00;0.00;;;;;;;;;;5061817;28;20548;-80
2022/12/03 05:04:04;;;;;;;0.00;0.00;;;;;;;;;;5040745;28;20037;-80
2022/12/03 05:06:30;;;;;;;0.00;0.00;;;;;;;;;;5055517;28;20504;-81
2022/12/03 05:08:56;;;;;;;0.00;0.00;;;;;;;;;;5056064;28;20017;-79
2022/12/03 05:11:23;;;;;;;0.00;0.00;;;;;;;;;;5036099;28;20108;-81
2022/12/03 05:13:51;;;;;;;0.00;0.00;;;;;;;;;;5032417;28;20052;-81
2022/12/03 05:16:17;;;;;;;0.00;0.00;;;;;;;;;;5043224;28;20145;-81
2022/12/03 05:18:44;;;;;;;0.00;0.00;;;;;;;;;;5041406;28;20033;-81
2022/12/03 05:21:10;;;;;;;0.00;0.00;;;;;;;;;;5039661;28;20036;-81
2022/12/03 05:23:36;;;;;;;0.00;0.00;;;;;;;;;;5039345;28;20025;-81
2022/12/03 05:26:03;;;;;;;0.00;0.00;;;;;;;;;;5021389;28;20101;-81
2022/12/03 05:28:29;;;;;;;0.00;0.00;;;;;;;;;;5017697;28;20021;-81
2022/12/03 05:30:56;;;;;;;0.00;0.00;;;;;;;;;;5035063;28;20025;-83
2022/12/03 05:33:22;;;;;;;0.00;0.00;;;;;;;;;;5035577;28;20021;-81
2022/12/03 05:35:48;;;;;;;0.00;0.00;;;;;;;;;;5037021;28;20083;-80
2022/12/03 05:38:15;;;;;;;0.00;0.00;;;;;;;;;;5035859;28;20025;-81
2022/12/03 05:40:41;;;;;;;0.00;0.00;;;;;;;;;;5039666;28;20033;-80
2022/12/03 05:43:08;;;;;;;0.00;0.00;;;;;;;;;;5020170;28;20277;-81
2022/12/03 05:45:38;;;;;;;0.00;0.00;;;;;;;;;;5040998;28;20037;-80
2022/12/03 05:48:06;;;;;;;0.00;0.00;;;;;;;;;;5040246;28;20029;-79
2022/12/03 05:50:33;;;;;;;0.00;0.00;;;;;;;;;;5040809;28;20476;-79
2022/12/03 05:53:00;;;;;;;0.00;0.00;;;;;;;;;;5038398;28;20037;-79
2022/12/03 05:55:26;;;;;;;0.00;0.00;;;;;;;;;;5042062;28;20430;-79
2022/12/03 05:57:53;;;;;;;0.00;0.00;;;;;;;;;;5041542;28;20052;-81
2022/12/03 06:00:21;;;;;;;0.00;0.00;;;;;;;;;;5044136;28;20033;-79
2022/12/03 06:02:47;;;;;;;0.00;0.00;;;;;;;;;;5037699;28;20115;-80
2022/12/03 06:05:14;;;;;;;0.00;0.00;;;;;;;;;;5018250;28;20033;-79
2022/12/03 06:07:41;;;;;;;0.00;0.00;;;;;;;;;;5019918;28;20068;-79
2022/12/03 06:10:15;;;;;;;0.00;0.00;;;;;;;;;;5026683;28;20384;-79
2022/12/03 06:12:42;;;;;;;0.00;0.00;;;;;;;;;;5055984;28;20047;-79
2022/12/03 06:15:09;;;;;;;0.00;0.00;;;;;;;;;;5067339;28;20027;-78
2022/12/03 06:17:35;;;;;;;0.00;0.00;;;;;;;;;;5062174;28;20082;-79
2022/12/03 06:20:01;;;;;;;0.00;0.00;;;;;;;;;;5067071;28;20048;-79
2022/12/03 06:22:28;;;;;;;0.00;0.00;;;;;;;;;;5059908;28;21192;-80
2022/12/03 06:24:54;;;;;;;0.00;0.00;;;;;;;;;;5062309;28;20520;-79
2022/12/03 06:27:20;;;;;;;0.00;0.00;;;;;;;;;;5041841;28;20119;-80
2022/12/03 06:29:46;;;;;;;0.00;0.00;;;;;;;;;;5061087;28;20100;-79
2022/12/03 06:32:13;;;;;;;0.00;0.00;;;;;;;;;;5061430;28;20076;-78
2022/12/03 06:34:39;;;;;;;0.00;0.00;;;;;;;;;;5057130;28;20021;-80
2022/12/03 06:37:05;;;;;;;0.00;0.00;;;;;;;;;;5038037;28;20032;-78
2022/12/03 06:39:32;;;;;;;0.00;0.00;;;;;;;;;;5062075;28;20372;-80
2022/12/03 06:41:58;;;;;;;0.00;0.00;;;;;;;;;;5064932;28;20048;-79
2022/12/03 06:44:24;;;;;;;0.00;0.00;;;;;;;;;;5066432;28;20424;-80
2022/12/03 06:46:51;;;;;;;0.00;0.00;;;;;;;;;;5064770;28;20061;-79
2022/12/03 06:49:17;;;;;;;0.00;0.00;;;;;;;;;;5058951;28;21309;-78
2022/12/03 06:51:44;;;;;;;0.00;0.00;;;;;;;;;;5057760;28;20013;-78
2022/12/03 06:54:10;;;;;;;0.00;0.00;;;;;;;;;;5061169;28;20017;-78
2022/12/03 06:56:37;;;;;;;0.00;0.00;;;;;;;;;;5043617;28;20115;-78
2022/12/03 06:59:03;;;;;;;0.00;0.00;;;;;;;;;;5058043;28;20079;-78
2022/12/03 07:01:29;;;;;;;0.00;0.00;;;;;;;;;;5059006;28;20060;-78
2022/12/03 07:03:56;;;;;;;0.00;0.00;;;;;;;;;;5063653;28;20024;-79
2022/12/03 07:06:22;;;;;;;0.00;0.00;;;;;;;;;;5060451;28;20029;-79
2022/12/03 07:08:48;;;;;;;0.00;0.00;;;;;;;;;;5060080;28;20045;-79
2022/12/03 07:11:30;;;;;;;0.00;0.00;;;;;;;;;;5059771;28;20023;-80
2022/12/03 07:13:57;;;;;;;0.00;0.00;;;;;;;;;;5061598;28;20051;-79
2022/12/03 07:16:23;;;;;;;0.00;0.00;;;;;;;;;;5058567;28;20063;-80
2022/12/03 07:18:49;;;;;;;0.00;0.00;;;;;;;;;;5061368;28;20028;-80
2022/12/03 07:21:16;;;;;;;0.00;0.00;;;;;;;;;;5060081;28;20473;-80
2022/12/03 07:23:42;;;;;;;0.00;0.00;;;;;;;;;;5059062;28;20043;-80
2022/12/03 07:26:08;;;;;;;0.00;0.00;;;;;;;;;;5063808;28;20103;-80
2022/12/03 07:28:34;;;;;;;0.00;0.00;;;;;;;;;;5056222;28;20539;-80
2022/12/03 07:31:01;;;;;;;0.00;0.00;;;;;;;;;;5046275;28;20066;-80
2022/12/03 07:33:34;;;;;;;0.00;0.00;;;;;;;;;;5055866;28;20032;-80
2022/12/03 07:36:00;;;;;;;0.03;0.00;;;;;;;;;;5059458;28;20085;-80
2022/12/03 07:38:26;;;;;;;0.00;0.00;;;;;;;;;;5063263;28;20060;-82
2022/12/03 07:40:53;;;;;;;0.00;0.00;;;;;;;;;;5063941;28;20436;-80
2022/12/03 07:43:20;;;;;;;0.00;0.00;;;;;;;;;;5068652;28;20028;-80
2022/12/03 07:45:46;;;;;;;0.00;0.00;;;;;;;;;;5063205;28;20029;-80
2022/12/03 07:48:13;;;;;;;0.00;0.00;;;;;;;;;;5070069;28;20028;-80
2022/12/03 07:50:39;;;;;;;0.00;0.00;;;;;;;;;;5061603;28;20037;-80
2022/12/03 07:53:05;;;;;;;0.00;0.00;;;;;;;;;;5063274;28;20689;-79
2022/12/03 07:55:32;;;;;;;0.00;0.00;;;;;;;;;;5039378;28;20029;-79
2022/12/03 07:57:58;;;;;;;0.00;0.00;;;;;;;;;;5066467;28;20475;-81
2022/12/03 08:00:24;;;;;;;0.00;0.00;;;;;;;;;;5071150;28;20028;-82
2022/12/03 08:02:51;;;;;;;0.00;0.00;;;;;;;;;;5047490;28;20029;-83
2022/12/03 08:05:17;;;;;;;0.00;0.00;;;;;;;;;;5068084;28;20381;-84
2022/12/03 08:08:01;;;;;;;0.00;0.00;;;;;;;;;;5020233;28;20037;-84
2022/12/03 08:10:28;;;;;;;0.00;0.00;;;;;;;;;;5062823;28;20025;-83
2022/12/03 08:12:56;;;;;;;0.00;0.00;;;;;;;;;;5059197;28;20485;-83
2022/12/03 08:15:23;;;;;;;0.00;0.00;;;;;;;;;;5059279;28;20082;-82
2022/12/03 08:17:55;;;;;;;0.00;0.00;;;;;;;;;;5064555;28;20060;-83
2022/12/03 08:20:22;;;;;;;0.00;0.00;;;;;;;;;;5046016;28;20091;-82
2022/12/03 08:22:52;;;;;;;0.00;0.00;;;;;;;;;;5061033;28;20025;-82
2022/12/03 08:25:26;;;;;;;0.00;0.00;;;;;;;;;;5061689;28;20485;-83
2022/12/03 08:27:55;;;;;;;0.00;0.00;;;;;;;;;;5066287;28;20031;-84
2022/12/03 08:30:21;;;;;;;0.00;0.00;;;;;;;;;;5065197;28;20021;-83
2022/12/03 08:32:48;;;;;;;0.00;0.00;;;;;;;;;;5059487;28;20048;-83
2022/12/03 08:35:18;;;;;;;0.00;0.00;;;;;;;;;;5040771;28;20107;-84
2022/12/03 08:37:44;;;;;;;0.00;0.00;;;;;;;;;;5057934;28;20027;-83
2022/12/03 08:40:22;;;;;;;0.00;0.00;;;;;;;;;;5054684;28;20128;-83
2022/12/03 08:42:49;;;;;;;0.00;0.00;;;;;;;;;;5065342;28;20025;-83
2022/12/03 08:45:31;;;;;;;0.00;0.00;;;;;;;;;;5059384;28;20056;-83
2022/12/03 08:48:23;;;;;;;0.00;0.00;;;;;;;;;;5067560;28;20454;-83
2022/12/03 08:50:50;;;;;;;0.00;0.00;;;;;;;;;;5020775;28;20063;-82
2022/12/03 08:53:33;;;;;;;0.00;0.00;;;;;;;;;;5046337;28;20032;-83
2022/12/03 08:56:02;;;;;;;0.00;0.00;;;;;;;;;;5048866;28;20029;-83
2022/12/03 08:58:32;;;;;;;0.00;0.00;;;;;;;;;;5045361;28;20298;-82
2022/12/03 09:01:02;;;;;;;0.00;0.00;;;;;;;;;;5064775;28;20021;-83
2022/12/03 09:03:30;;;;;;;0.00;0.00;;;;;;;;;;5048587;28;20032;-82
2022/12/03 09:05:56;;;;;;;0.00;0.00;;;;;;;;;;5065824;28;20082;-82
2022/12/03 09:08:23;;;;;;;0.00;0.00;;;;;;;;;;5076046;28;20376;-82
2022/12/03 09:10:49;;;;;;;0.00;0.00;;;;;;;;;;5067382;28;20051;-83
2022/12/03 09:13:16;;;;;;;0.00;0.00;;;;;;;;;;5043056;28;20054;-83
2022/12/03 09:15:42;;;;;;;0.00;0.00;;;;;;;;;;5044950;28;20033;-83
2022/12/03 09:18:08;;;;;;;0.00;0.00;;;;;;;;;;5054387;28;20087;-82
2022/12/03 09:20:35;;;;;;;0.00;0.00;;;;;;;;;;5055900;28;20029;-83
2022/12/03 09:23:01;;;;;;;0.00;0.00;;;;;;;;;;5046864;28;20029;-82
2022/12/03 09:25:27;;;;;;;0.00;0.00;;;;;;;;;;5039544;28;20176;-81
2022/12/03 09:27:54;;;;;;;0.00;0.00;;;;;;;;;;5037410;28;20560;-83
2022/12/03 09:30:20;;;;;;;0.00;0.00;;;;;;;;;;5036359;28;20365;-82
2022/12/03 09:32:46;;;;;;;0.00;0.00;;;;;;;;;;5036523;28;20105;-83
2022/12/03 09:35:13;;;;;;;0.00;0.00;;;;;;;;;;5044097;28;20468;-83
2022/12/03 09:37:39;;;;;;;0.00;0.00;;;;;;;;;;5043267;28;20500;-80
2022/12/03 09:40:06;;;;;;;0.00;0.00;;;;;;;;;;5049926;28;20021;-81
2022/12/03 09:42:32;;;;;;;1.98;0.05;;;;;;;;;;5049826;28;20029;-81
2022/12/03 09:44:59;;;;;;;0.00;0.00;;;;;;;;;;5043643;28;20014;-83
2022/12/03 09:47:25;;;;;;;0.00;0.00;;;;;;;;;;5044327;28;20033;-82
2022/12/03 09:49:52;;;;;;;0.00;0.00;;;;;;;;;;5047465;28;20017;-83
2022/12/03 09:52:23;;;;;;;0.00;0.00;;;;;;;;;;5045298;28;20029;-84
2022/12/03 09:54:49;;;;;;;0.00;0.00;;;;;;;;;;5041790;28;21614;-83
2022/12/03 09:57:16;;;;;;;0.00;0.00;;;;;;;;;;5043202;28;20060;-83
2022/12/03 09:59:42;;;;;;;0.00;0.00;;;;;;;;;;5038503;28;20075;-83
2022/12/03 10:02:24;;;;;;;0.00;0.00;;;;;;;;;;5038937;28;20536;-81
2022/12/03 10:04:52;;;;;;;0.00;0.00;;;;;;;;;;5038622;28;20028;-83
2022/12/03 10:07:18;;;;;;;0.00;0.00;;;;;;;;;;5037097;28;20025;-83
2022/12/03 10:09:45;;;;;;;0.00;0.00;;;;;;;;;;5041261;28;20021;-84
2022/12/03 10:12:13;;;;;;;0.00;0.00;;;;;;;;;;5047761;28;20037;-83
2022/12/03 10:14:40;;;;;;;0.00;0.00;;;;;;;;;;5063041;28;20021;-84
2022/12/03 10:17:06;;;;;;;0.00;0.00;;;;;;;;;;5065126;28;20052;-84
2022/12/03 10:19:34;;;;;;;0.00;0.00;;;;;;;;;;5067022;28;20028;-84
2022/12/03 10:22:01;;;;;;;0.00;0.00;;;;;;;;;;5048300;28;20380;-83
2022/12/03 10:24:28;;;;;;;0.00;0.00;;;;;;;;;;5060184;28;20029;-83
2022/12/03 10:26:59;;;;;;;0.00;0.00;;;;;;;;;;5061786;28;20536;-84
2022/12/03 10:29:25;;;;;;;0.00;0.00;;;;;;;;;;5065445;28;20448;-85
2022/12/03 10:31:54;;;;;;;0.00;0.00;;;;;;;;;;5065123;28;20059;-84
2022/12/03 10:34:29;;;;;;;0.00;0.00;;;;;;;;;;5053893;28;20514;-84
2022/12/03 10:37:12;;;;;;;0.00;0.00;;;;;;;;;;5071817;28;20407;-85
2022/12/03 10:39:54;;;;;;;0.00;0.00;;;;;;;;;;5043596;28;20060;-84
2022/12/03 10:42:20;;;;;;;0.00;0.00;;;;;;;;;;5063588;28;20025;-85
2022/12/03 10:44:46;;;;;;;0.00;0.00;;;;;;;;;;5065973;28;20024;-84
2022/12/03 10:47:13;;;;;;;0.00;0.00;;;;;;;;;;5060226;28;20044;-84
2022/12/03 10:49:42;;;;;;;0.00;0.00;;;;;;;;;;5067010;28;20031;-84
2022/12/03 10:52:21;;;;;;;0.00;0.00;;;;;;;;;;5043980;28;20028;-82
2022/12/03 10:54:47;;;;;;;0.00;0.00;;;;;;;;;;5068927;28;20052;-84
2022/12/03 10:57:14;;;;;;;0.00;0.00;;;;;;;;;;5063313;28;20077;-84
2022/12/03 10:59:41;;;;;;;0.00;0.00;;;;;;;;;;5066632;28;20115;-85
2022/12/03 11:02:14;;;;;;;0.00;0.00;;;;;;;;;;5063302;28;20526;-86
2022/12/03 11:04:40;;;;;;;0.00;0.00;;;;;;;;;;5060112;28;20033;-85
2022/12/03 11:07:12;;;;;;;0.00;0.00;;;;;;;;;;5075444;28;20048;-84
2022/12/03 11:09:39;;;;;;;0.00;0.00;;;;;;;;;;5072046;28;20021;-84
2022/12/03 11:12:06;;;;;;;0.00;0.00;;;;;;;;;;5082308;28;20057;-85
2022/12/03 11:14:55;;;;;;;0.00;0.00;;;;;;;;;;5061264;28;20029;-84
2022/12/03 11:17:39;;;;;;;0.00;0.00;;;;;;;;;;5076864;28;20021;-82
2022/12/03 11:20:26;;;;;;;0.00;0.00;;;;;;;;;;5069388;28;20053;-84
2022/12/03 11:22:56;;;;;;;0.00;0.00;;;;;;;;;;5040435;28;20071;-84
2022/12/03 11:25:26;;;;;;;0.00;0.00;;;;;;;;;;5074116;28;20021;-83
2022/12/03 11:28:21;;;;;;;0.00;0.00;;;;;;;;;;5080505;28;20031;-83
2022/12/03 11:30:52;;;;;;;0.00;0.00;;;;;;;;;;5051835;28;20053;-82
2022/12/03 11:33:35;;;;;;;0.00;0.00;;;;;;;;;;5043775;28;20052;-83
2022/12/03 11:36:04;;;;;;;0.00;0.00;;;;;;;;;;5056774;28;20485;-82
2022/12/03 11:38:47;;;;;;;0.00;0.00;;;;;;;;;;5075836;28;20219;-82
2022/12/03 11:41:14;;;;;;;0.00;0.00;;;;;;;;;;5052846;28;20035;-81
2022/12/03 11:43:55;;;;;;;0.00;0.00;;;;;;;;;;5056159;28;20166;-80
2022/12/03 11:46:23;;;;;;;0.00;0.00;;;;;;;;;;5051156;28;20036;-79
2022/12/03 11:48:50;;;;;;;0.00;0.00;;;;;;;;;;5063216;28;20028;-84
2022/12/03 11:51:18;;;;;;;0.00;0.00;;;;;;;;;;5060530;28;20036;-80
2022/12/03 11:53:44;;;;;;;0.00;0.00;;;;;;;;;;5060111;28;20032;-79
2022/12/03 11:56:17;;;;;;;0.00;0.00;;;;;;;;;;5043340;28;20499;-80
2022/12/03 11:58:44;;;;;;;0.00;0.00;;;;;;;;;;5044038;28;20028;-79
2022/12/03 12:01:11;;;;;;;0.00;0.00;;;;;;;;;;5058910;28;20472;-79
2022/12/03 12:03:44;;;;;;;0.00;0.00;;;;;;;;;;5040836;28;20047;-80
2022/12/03 12:06:12;;;;;;;0.00;0.00;;;;;;;;;;5061915;28;20020;-80
2022/12/03 12:08:40;;;;;;;0.00;0.00;;;;;;;;;;5058874;28;20453;-80
2022/12/03 12:11:23;;;;;;;0.00;0.00;;;;;;;;;;5067185;28;20035;-80
2022/12/03 12:13:51;;;;;;;1.10;0.03;;;;;;;;;;5040889;28;20041;-80
2022/12/03 12:16:36;;;;;;;0.00;0.00;;;;;;;;;;5044454;28;20083;-79
2022/12/03 12:19:23;;;;;;;0.00;0.00;;;;;;;;;;5049054;28;20024;-81
2022/12/03 12:21:50;;;;;;;0.00;0.00;;;;;;;;;;5023462;28;20048;-82
2022/12/03 12:24:45;;;;;;;0.00;0.00;;;;;;;;;;5047359;28;20033;-81
2022/12/03 12:27:22;;;;;;;0.00;0.00;;;;;;;;;;5040968;28;20056;-81
2022/12/03 12:29:56;;;;;;;0.00;0.00;;;;;;;;;;5049757;28;20437;-81
2022/12/03 12:32:24;;;;;;;0.00;0.00;;;;;;;;;;5047975;28;20470;-82
2022/12/03 12:34:53;;;;;;;0.00;0.00;;;;;;;;;;5025766;28;20029;-82
2022/12/03 12:37:27;;;;;;;0.00;0.00;;;;;;;;;;5025290;28;20048;-82
2022/12/03 12:39:55;;;;;;;0.00;0.00;;;;;;;;;;5043514;28;20030;-81
2022/12/03 12:42:35;;;;;;;0.00;0.00;;;;;;;;;;5041331;28;20476;-81
2022/12/03 12:45:13;;;;;;;0.00;0.00;;;;;;;;;;5046313;28;20045;-82
2022/12/03 12:47:43;;;;;;;0.00;0.00;;;;;;;;;;5037672;28;20030;-82
2022/12/03 12:50:10;;;;;;;0.00;0.00;;;;;;;;;;5043472;28;20500;-81
2022/12/03 12:52:46;;;;;;;0.00;0.00;;;;;;;;;;5036202;28;20033;-81
2022/12/03 12:55:14;;;;;;;0.00;0.00;;;;;;;;;;5037609;28;20056;-83
2022/12/03 12:57:41;;;;;;;0.00;0.00;;;;;;;;;;5042508;28;20481;-81
2022/12/03 13:00:13;;;;;;;0.00;0.00;;;;;;;;;;5043788;28;20477;-81
2022/12/03 13:02:44;;;;;;;0.00;0.00;;;;;;;;;;5049073;28;20037;-84
2022/12/03 13:05:11;;;;;;;0.00;0.00;;;;;;;;;;5046269;28;20036;-83
2022/12/03 13:07:38;;;;;;;0.00;0.00;;;;;;;;;;5040137;28;20029;-81
2022/12/03 13:10:24;;;;;;;0.00;0.00;;;;;;;;;;5043774;28;20017;-80
2022/12/03 13:12:50;;;;;;;0.00;0.00;;;;;;;;;;5058046;28;20055;-81
2022/12/03 13:15:36;;;;;;;0.00;0.00;;;;;;;;;;5062947;28;20032;-80
2022/12/03 13:18:20;;;;;;;0.00;0.00;;;;;;;;;;5061485;28;20029;-82
2022/12/03 13:20:47;;;;;;;0.00;0.00;;;;;;;;;;5045563;28;20129;-81
2022/12/03 13:23:39;;;;;;;0.00;0.00;;;;;;;;;;5062151;28;20024;-81
2022/12/03 13:26:16;;;;;;;0.00;0.00;;;;;;;;;;5050041;28;20037;-81
2022/12/03 13:28:42;;;;;;;0.00;0.00;;;;;;;;;;5065883;28;20028;-82
2022/12/03 13:31:21;;;;;;;0.00;0.00;;;;;;;;;;5071105;28;20025;-82
2022/12/03 13:33:48;;;;;;;0.00;0.00;;;;;;;;;;5044187;28;20082;-81
2022/12/03 13:36:15;;;;;;;0.00;0.00;;;;;;;;;;5071229;28;20504;-82
2022/12/03 13:38:43;;;;;;;0.00;0.00;;;;;;;;;;5074883;28;20477;-81
2022/12/03 13:42:37;;;;;;;0.00;0.00;;;;;;;;;;5066249;28;20485;-80
2022/12/03 13:43:59;;;;;;;0.00;0.00;;;;;;;;;;5073061;28;20058;-81
2022/12/03 13:46:27;;;;;;;0.00;0.00;;;;;;;;;;5074141;28;20072;-82
2022/12/03 13:48:53;;;;;;;0.00;0.00;;;;;;;;;;5075755;28;20032;-81
2022/12/03 13:51:25;;;;;;;0.00;0.00;;;;;;;;;;5061514;28;20037;-81
2022/12/03 13:53:52;;;;;;;0.00;0.00;;;;;;;;;;5055625;28;20112;-81
2022/12/03 13:56:31;;;;;;;0.00;0.00;;;;;;;;;;5058377;28;20021;-81
2022/12/03 13:58:59;;;;;;;0.00;0.00;;;;;;;;;;5067622;28;20033;-82
2022/12/03 14:01:26;;;;;;;0.00;0.00;;;;;;;;;;5071593;28;20456;-82
2022/12/03 14:03:53;;;;;;;0.00;0.00;;;;;;;;;;5064679;28;20522;-82
2022/12/03 14:06:19;;;;;;;0.00;0.00;;;;;;;;;;5073948;28;20033;-81
2022/12/03 14:08:46;;;;;;;0.00;0.00;;;;;;;;;;5063177;28;20029;-81
2022/12/03 14:12:24;;;;;;;0.00;0.00;;;;;;;;;;5061250;28;20025;-80
2022/12/03 14:13:58;;;;;;;0.00;0.00;;;;;;;;;;5047135;28;20481;-80
2022/12/03 14:16:24;;;;;;;0.00;0.00;;;;;;;;;;5038076;28;20477;-80
2022/12/03 14:18:51;;;;;;;0.00;0.00;;;;;;;;;;5055813;28;20028;-82
2022/12/03 14:21:17;;;;;;;0.00;0.00;;;;;;;;;;5043986;28;20013;-82
2022/12/03 14:23:43;;;;;;;0.00;0.00;;;;;;;;;;5048406;28;20037;-82
2022/12/03 14:26:10;;;;;;;0.00;0.00;;;;;;;;;;5048685;28;20147;-81
2022/12/03 14:28:36;;;;;;;0.00;0.00;;;;;;;;;;5037537;28;20045;-81
2022/12/03 14:31:02;;;;;;;0.00;0.00;;;;;;;;;;5054195;28;20509;-81
2022/12/03 14:33:29;;;;;;;0.00;0.00;;;;;;;;;;5037015;28;20029;-81
2022/12/03 14:35:56;;;;;;;0.00;0.00;;;;;;;;;;5057373;28;20076;-81
2022/12/03 14:38:22;;;;;;;0.00;0.00;;;;;;;;;;5055507;28;20032;-83
2022/12/03 14:40:49;;;;;;;0.00;0.00;;;;;;;;;;5056996;28;20036;-81
2022/12/03 14:43:15;;;;;;;0.00;0.00;;;;;;;;;;5056966;28;20029;-82
2022/12/03 14:45:41;;;;;;;0.00;0.00;;;;;;;;;;5046932;28;20025;-82
2022/12/03 14:48:08;;;;;;;0.00;0.00;;;;;;;;;;5037395;28;20431;-81
2022/12/03 14:50:34;;;;;;;0.00;0.00;;;;;;;;;;5043513;28;20029;-81
2022/12/03 14:53:00;;;;;;;0.00;0.00;;;;;;;;;;5016911;28;20108;-81
2022/12/03 14:55:26;;;;;;;0.00;0.00;;;;;;;;;;5034385;28;20380;-82
2022/12/03 14:57:53;;;;;;;0.00;0.00;;;;;;;;;;5052916;28;20025;-82
2022/12/03 15:00:19;;;;;;;0.00;0.00;;;;;;;;;;5054253;28;20100;-82
2022/12/03 15:02:46;;;;;;;0.00;0.00;;;;;;;;;;5054940;28;20017;-82
2022/12/03 15:05:12;;;;;;;0.00;0.00;;;;;;;;;;5034778;28;20389;-81
2022/12/03 15:07:38;;;;;;;0.00;0.00;;;;;;;;;;5066824;28;20040;-82
2022/12/03 15:10:06;;;;;;;0.00;0.00;;;;;;;;;;5054110;28;20108;-82